createdAt,value
2022-11-14T00:03:51.049Z,24.9
2022-11-14T00:09:19.991Z,25.4
2022-11-14T00:14:41.647Z,26.2
2022-11-14T00:19:48.571Z,26
2022-11-14T00:25:27.277Z,24.4
2022-11-14T00:31:04.866Z,23.8
2022-11-14T00:36:42.712Z,23.7
2022-11-14T00:41:50.599Z,23.6
2022-11-14T00:47:12.501Z,23.6
2022-11-14T00:52:50.108Z,23.4
2022-11-14T00:58:28.564Z,23.3
2022-11-14T01:04:11.507Z,23.1
2022-11-14T01:09:49.306Z,23
2022-11-14T01:15:12.782Z,22.8
2022-11-14T01:20:49.606Z,22.8
2022-11-14T01:26:16.647Z,22.6
2022-11-14T01:31:55.254Z,22.4
2022-11-14T01:37:16.590Z,22.3
2022-11-14T01:43:00.273Z,22.1
2022-11-14T01:48:38.649Z,21.9
2022-11-14T01:54:15.562Z,21.8
2022-11-14T01:59:22.225Z,21.6
2022-11-14T02:05:05.847Z,21.4
2022-11-14T02:10:44.252Z,21.3
2022-11-14T02:16:20.701Z,21
2022-11-14T02:22:21.237Z,20.8
2022-11-14T02:27:44.736Z,20.6
2022-11-14T02:33:27.797Z,20.4
2022-11-14T02:39:06.380Z,20.2
2022-11-14T02:44:44.032Z,20.1
2022-11-14T02:50:21.747Z,19.9
2022-11-14T02:55:46.555Z,19.7
2022-11-14T03:00:48.080Z,19.6
2022-11-14T03:05:55.935Z,19.4
2022-11-14T03:10:32.620Z,19.3
2022-11-14T03:16:11.121Z,19.2
2022-11-14T03:21:17.850Z,19
2022-11-14T03:26:55.439Z,18.9
2022-11-14T03:32:33.405Z,18.8
2022-11-14T03:38:13.313Z,18.6
2022-11-14T03:43:51.168Z,18.6
2022-11-14T03:49:28.819Z,18.4
2022-11-14T03:54:50.980Z,18.3
2022-11-14T03:59:58.016Z,18.2
2022-11-14T04:05:21.324Z,18.1
2022-11-14T04:11:00.216Z,18
2022-11-14T04:16:41.793Z,17.9
2022-11-14T04:22:09.082Z,17.9
2022-11-14T04:27:31.961Z,17.8
2022-11-14T04:33:09.378Z,17.7
2022-11-14T04:38:33.653Z,17.6
2022-11-14T04:44:11.851Z,17.5
2022-11-14T04:49:49.911Z,17.4
2022-11-14T04:55:11.254Z,17.4
2022-11-14T05:00:39.695Z,17.3
2022-11-14T05:06:01.921Z,17.3
2022-11-14T05:11:45.461Z,17.3
2022-11-14T05:17:05.468Z,17.2
2022-11-14T05:22:42.474Z,17.1
2022-11-14T05:28:08.390Z,17.1
2022-11-14T05:43:31.826Z,16.9
2022-11-14T05:49:09.258Z,16.9
2022-11-14T05:54:47.173Z,16.9
2022-11-14T06:00:29.957Z,16.9
2022-11-14T06:05:59.640Z,16.8
2022-11-14T06:11:37.970Z,16.8
2022-11-14T06:17:16.167Z,16.8
2022-11-14T06:22:54.344Z,16.8
2022-11-14T06:28:31.689Z,16.7
2022-11-14T06:34:13.309Z,16.6
2022-11-14T06:39:51.116Z,16.6
2022-11-14T06:45:34.891Z,16.6
2022-11-14T06:50:46.813Z,16.6
2022-11-14T06:56:30.884Z,16.6
2022-11-14T07:01:53.893Z,16.5
2022-11-14T07:07:16.141Z,16.5
2022-11-14T07:12:37.861Z,16.5
2022-11-14T07:18:03.953Z,16.4
2022-11-14T07:23:25.847Z,16.4
2022-11-14T07:28:52.400Z,16.4
2022-11-14T07:34:15.100Z,16.4
2022-11-14T07:39:37.771Z,16.3
2022-11-14T07:45:00.249Z,16.3
2022-11-14T07:50:22.409Z,16.3
2022-11-14T07:55:44.357Z,16.3
2022-11-14T08:01:10.490Z,16.3
2022-11-14T08:06:49.072Z,16.3
2022-11-14T08:12:25.388Z,16.2
2022-11-14T08:18:14.361Z,16.2
2022-11-14T08:23:37.442Z,16.2
2022-11-14T08:29:21.269Z,16.2
2022-11-14T08:34:48.096Z,16.1
2022-11-14T08:40:27.307Z,16.1
2022-11-14T08:46:05.045Z,16.1
2022-11-14T08:51:42.517Z,16.1
2022-11-14T08:57:22.069Z,16.1
2022-11-14T09:03:01.498Z,16.1
2022-11-14T09:08:45.438Z,16.1
2022-11-14T09:14:25.614Z,16.1
2022-11-14T09:20:09.585Z,16.1
2022-11-14T09:25:59.517Z,16
2022-11-14T09:31:41.030Z,16
2022-11-14T09:37:22.615Z,16
2022-11-14T09:43:08.063Z,16
2022-11-14T09:48:48.511Z,16
2022-11-14T09:54:31.661Z,16
2022-11-14T10:00:10.757Z,16
2022-11-14T10:05:38.556Z,15.9
2022-11-14T10:11:17.723Z,16
2022-11-14T10:16:41.338Z,15.9
2022-11-14T10:22:19.539Z,15.9
2022-11-14T10:28:03.914Z,15.9
2022-11-14T10:33:42.187Z,15.9
2022-11-14T10:39:27.791Z,15.9
2022-11-14T10:45:38.549Z,15.9
2022-11-14T10:51:01.306Z,15.9
2022-11-14T10:57:09.187Z,15.9
2022-11-14T11:02:57.927Z,15.9
2022-11-14T11:10:06.560Z,15.9
2022-11-14T11:15:29.032Z,15.9
2022-11-14T11:21:03.458Z,15.9
2022-11-14T11:26:41.990Z,15.9
2022-11-14T11:32:20.339Z,15.9
2022-11-14T11:37:59.153Z,15.9
2022-11-14T11:45:04.378Z,15.9
2022-11-14T11:50:27.837Z,15.9
2022-11-14T11:56:05.890Z,15.9
2022-11-14T12:01:33.542Z,15.9
2022-11-14T12:07:18.773Z,15.9
2022-11-14T12:13:32.586Z,15.9
2022-11-14T12:19:16.796Z,15.9
2022-11-14T12:25:02.033Z,15.9
2022-11-14T12:30:46.635Z,15.9
2022-11-14T12:36:25.692Z,15.9
2022-11-14T12:42:06.428Z,15.9
2022-11-14T12:47:47.826Z,15.9
2022-11-14T12:53:28.289Z,15.9
2022-11-14T12:59:08.732Z,15.9
2022-11-14T13:04:53.106Z,15.9
2022-11-14T13:10:05.088Z,16
2022-11-14T13:15:28.745Z,15.9
2022-11-14T13:21:11.466Z,15.9
2022-11-14T13:26:35.960Z,15.9
2022-11-14T13:32:52.266Z,16
2022-11-14T13:38:36.167Z,16
2022-11-14T13:44:19.607Z,16
2022-11-14T13:49:57.763Z,16
2022-11-14T13:56:04.175Z,16
2022-11-14T14:01:44.909Z,16
2022-11-14T14:07:29.212Z,16
2022-11-14T14:13:07.659Z,16
2022-11-14T14:18:46.756Z,16
2022-11-14T14:24:31.090Z,16
2022-11-14T14:30:13.369Z,16
2022-11-14T14:35:57.185Z,16
2022-11-14T14:41:36.130Z,16
2022-11-14T14:47:19.087Z,16
2022-11-14T14:53:02.791Z,16
2022-11-14T14:58:40.328Z,16
2022-11-14T15:04:09.454Z,16
2022-11-14T15:09:47.464Z,16
2022-11-14T15:15:26.170Z,16
2022-11-14T15:21:11.182Z,16
2022-11-14T15:26:49.329Z,16
2022-11-14T15:32:12.208Z,15.9
2022-11-14T15:37:56.163Z,15.9
2022-11-14T15:44:04.056Z,15.9
2022-11-14T15:49:42.439Z,15.9
2022-11-14T15:55:21.037Z,15.9
2022-11-14T16:01:24.864Z,15.9
2022-11-14T16:07:02.955Z,15.9
2022-11-14T16:12:26.383Z,15.9
2022-11-14T16:17:54.157Z,15.9
2022-11-14T16:23:17.004Z,15.9
2022-11-14T16:28:43.750Z,15.9
2022-11-14T16:34:06.296Z,15.9
2022-11-14T16:39:28.695Z,15.9
2022-11-14T16:45:14.345Z,16
2022-11-14T16:55:57.729Z,31.3
2022-11-14T17:01:38.112Z,36.6
2022-11-14T17:07:00.273Z,38.6
2022-11-14T17:12:29.198Z,40
2022-11-14T17:18:08.763Z,40.4
2022-11-14T17:23:30.459Z,41.1
2022-11-14T17:28:58.677Z,42.6
2022-11-14T17:33:53.607Z,42.2
2022-11-14T17:39:30.725Z,40.8
2022-11-14T17:45:08.522Z,42.9
2022-11-14T17:50:51.099Z,46.6
2022-11-14T17:56:13.482Z,46.2
2022-11-14T18:01:57.413Z,45.5
2022-11-14T18:07:25.826Z,43.1
2022-11-14T18:13:07.733Z,40.8
2022-11-14T18:19:03.333Z,40.1
2022-11-14T18:24:41.482Z,42.8
2022-11-14T18:30:41.265Z,44.6
2022-11-14T18:36:19.622Z,46.8
2022-11-14T18:41:31.717Z,46.3
2022-11-14T18:47:10.560Z,46.2
2022-11-14T18:52:38.486Z,46.8
2022-11-14T18:57:46.197Z,45.3
2022-11-14T19:03:25.253Z,43.1
2022-11-14T19:08:47.942Z,40.7
2022-11-14T19:14:32.232Z,39.1
2022-11-14T19:20:14.096Z,38
2022-11-14T19:25:54.679Z,37.3
2022-11-14T19:31:32.471Z,38.9
2022-11-14T19:37:30.905Z,38.7
2022-11-14T19:42:54.938Z,36.8
2022-11-14T19:48:33.701Z,39.4
2022-11-14T19:53:59.057Z,36.4
2022-11-14T19:59:41.169Z,39
2022-11-14T20:05:19.537Z,35.3
2022-11-14T20:11:01.090Z,36.2
2022-11-14T20:16:23.588Z,36.7
2022-11-14T20:21:47.784Z,35.8
2022-11-14T20:27:16.645Z,34.8
2022-11-14T20:32:38.579Z,35.3
2022-11-14T20:38:39.593Z,39.1
2022-11-14T20:44:18.517Z,37
2022-11-14T20:49:42.381Z,36.3
2022-11-14T20:55:08.982Z,39.6
2022-11-14T21:00:47.959Z,36.9
2022-11-14T21:06:27.099Z,36.7
2022-11-14T21:12:05.863Z,37.9
2022-11-14T21:17:42.310Z,35.6
2022-11-14T21:23:19.791Z,37
2022-11-14T21:28:49.026Z,38.9
2022-11-14T21:34:10.988Z,37
2022-11-14T21:40:24.899Z,37.9
2022-11-14T21:46:07.106Z,36.3
2022-11-14T21:51:45.353Z,35.8
2022-11-14T21:56:52.664Z,35.1
2022-11-14T22:02:16.991Z,36.4
2022-11-14T22:07:58.558Z,35
2022-11-14T22:13:38.371Z,37.3
2022-11-14T22:19:22.038Z,34.8
2022-11-14T22:24:44.431Z,36.6
2022-11-14T22:29:50.449Z,34.8
2022-11-14T22:35:28.462Z,35.8
2022-11-14T22:41:06.807Z,37.2
2022-11-14T22:46:50.372Z,33.9
2022-11-14T22:52:27.562Z,34.1
2022-11-14T22:57:18.508Z,34.9
2022-11-14T23:02:56.396Z,35
2022-11-14T23:08:41.394Z,35.7
2022-11-14T23:14:19.757Z,36.1
2022-11-14T23:19:57.286Z,35.3
2022-11-14T23:25:21.581Z,33.7
2022-11-14T23:30:59.455Z,32.1
2022-11-14T23:36:36.662Z,30.9
2022-11-14T23:42:14.220Z,30.1
2022-11-14T23:47:51.052Z,29.5
2022-11-14T23:53:13.281Z,29.1
2022-11-14T23:58:50.757Z,28.8
